createdAt,value
2023-04-07T00:00:26.965Z,16.40
2023-04-07T00:02:54.462Z,16.80
2023-04-07T00:05:21.440Z,16.65
2023-04-07T00:07:55.801Z,16.05
2023-04-07T00:10:25.082Z,16.00
2023-04-07T00:12:52.226Z,16.50
2023-04-07T00:15:19.190Z,16.40
2023-04-07T00:17:46.066Z,16.20
2023-04-07T00:20:13.248Z,17.23
2023-04-07T00:22:40.290Z,16.80
2023-04-07T00:25:07.824Z,16.20
2023-04-07T00:27:34.881Z,16.75
2023-04-07T00:30:02.347Z,16.00
2023-04-07T00:32:29.301Z,16.65
2023-04-07T00:34:56.200Z,16.70
2023-04-07T00:37:23.930Z,16.65
2023-04-07T00:39:51.697Z,16.50
2023-04-07T00:42:19.425Z,16.73
2023-04-07T00:44:46.486Z,16.70
2023-04-07T00:47:13.445Z,17.20
2023-04-07T00:49:40.432Z,16.63
2023-04-07T00:52:11.311Z,16.75
2023-04-07T00:54:39.687Z,17.23
2023-04-07T00:57:07.231Z,16.45
2023-04-07T00:59:34.718Z,16.17
2023-04-07T01:02:13.240Z,16.10
2023-04-07T01:05:15.903Z,16.50
2023-04-07T01:08:06.643Z,16.33
2023-04-07T01:10:58.603Z,15.90
2023-04-07T01:13:34.465Z,16.70
2023-04-07T01:16:08.361Z,16.30
2023-04-07T01:18:38.288Z,16.40
2023-04-07T01:21:11.229Z,16.55
2023-04-07T01:24:04.142Z,16.10
2023-04-07T01:26:36.014Z,16.42
2023-04-07T01:29:31.400Z,16.05
2023-04-07T01:32:01.088Z,16.60
2023-04-07T01:34:31.366Z,16.50
2023-04-07T01:37:01.132Z,17.05
2023-04-07T01:39:28.686Z,16.48
2023-04-07T01:41:57.626Z,15.70
2023-04-07T01:44:26.133Z,17.33
2023-04-07T01:46:54.057Z,15.60
2023-04-07T01:49:22.148Z,16.50
2023-04-07T01:51:50.689Z,16.27
2023-04-07T01:54:18.383Z,17.98
2023-04-07T01:56:45.485Z,17.13
2023-04-07T01:59:12.618Z,16.55
2023-04-07T02:01:40.169Z,16.17
2023-04-07T02:04:28.802Z,16.40
2023-04-07T02:07:01.123Z,16.30
2023-04-07T02:09:31.649Z,17.15
2023-04-07T02:12:00.841Z,17.20
2023-04-07T02:14:28.464Z,17.63
2023-04-07T02:16:57.205Z,15.82
2023-04-07T02:19:24.974Z,16.30
2023-04-07T02:21:52.444Z,16.60
2023-04-07T02:24:22.342Z,15.90
2023-04-07T02:26:49.360Z,16.10
2023-04-07T02:29:16.534Z,16.70
2023-04-07T02:31:43.725Z,15.98
2023-04-07T02:34:10.712Z,16.75
2023-04-07T02:36:37.777Z,16.27
2023-04-07T02:39:04.735Z,16.80
2023-04-07T02:41:31.694Z,17.02
2023-04-07T02:43:58.610Z,16.02
2023-04-07T02:46:25.905Z,16.30
2023-04-07T02:48:52.885Z,16.58
2023-04-07T02:51:19.766Z,16.80
2023-04-07T02:53:46.788Z,16.25
2023-04-07T02:56:13.928Z,15.90
2023-04-07T02:58:41.017Z,16.35
2023-04-07T03:01:07.975Z,15.90
2023-04-07T03:03:35.077Z,16.45
2023-04-07T03:06:02.017Z,16.60
2023-04-07T03:08:28.974Z,16.70
2023-04-07T03:10:56.047Z,16.10
2023-04-07T03:13:23.079Z,16.20
2023-04-07T03:15:50.061Z,16.15
2023-04-07T03:18:16.923Z,17.10
2023-04-07T03:20:44.624Z,16.70
2023-04-07T03:23:11.613Z,16.10
2023-04-07T03:25:38.625Z,16.67
2023-04-07T03:28:05.539Z,16.20
2023-04-07T03:30:32.444Z,16.30
2023-04-07T03:32:59.432Z,16.33
2023-04-07T03:35:27.274Z,16.70
2023-04-07T03:37:54.220Z,16.80
2023-04-07T03:40:21.930Z,16.00
2023-04-07T03:42:48.883Z,16.20
2023-04-07T03:45:17.346Z,17.25
2023-04-07T03:47:44.373Z,16.27
2023-04-07T03:50:11.343Z,16.25
2023-04-07T03:52:38.238Z,16.17
2023-04-07T03:55:06.134Z,16.27
2023-04-07T03:57:33.060Z,16.88
2023-04-07T03:59:59.984Z,16.52
2023-04-07T04:02:26.968Z,16.20
2023-04-07T04:04:54.131Z,16.30
2023-04-07T04:07:21.033Z,16.50
2023-04-07T04:09:47.962Z,16.60
2023-04-07T04:12:14.902Z,15.90
2023-04-07T04:14:41.733Z,16.30
2023-04-07T04:17:08.737Z,15.90
2023-04-07T04:19:35.749Z,18.90
2023-04-07T04:22:02.763Z,16.25
2023-04-07T04:24:29.641Z,16.60
2023-04-07T04:26:56.842Z,17.10
2023-04-07T04:29:23.823Z,15.80
2023-04-07T04:31:50.782Z,16.30
2023-04-07T04:34:17.791Z,15.90
2023-04-07T04:36:44.758Z,17.40
2023-04-07T04:39:11.745Z,16.02
2023-04-07T04:41:38.620Z,17.23
2023-04-07T04:44:05.487Z,15.82
2023-04-07T04:46:32.541Z,17.20
2023-04-07T04:48:59.684Z,17.90
2023-04-07T04:51:27.197Z,16.10
2023-04-07T04:53:54.767Z,16.65
2023-04-07T04:56:21.917Z,16.15
2023-04-07T04:58:48.846Z,16.33
2023-04-07T05:01:15.957Z,16.08
2023-04-07T05:03:43.278Z,16.52
2023-04-07T05:06:10.393Z,15.95
2023-04-07T05:08:37.441Z,17.10
2023-04-07T05:11:04.462Z,16.60
2023-04-07T05:13:31.459Z,16.65
2023-04-07T05:15:58.391Z,17.00
2023-04-07T05:18:25.571Z,15.93
2023-04-07T05:20:52.583Z,16.73
2023-04-07T05:23:19.448Z,17.37
2023-04-07T05:25:46.398Z,15.93
2023-04-07T05:28:13.350Z,16.30
2023-04-07T05:30:40.521Z,16.80
2023-04-07T05:33:07.654Z,16.58
2023-04-07T05:35:34.637Z,15.73
2023-04-07T05:38:01.654Z,16.20
2023-04-07T05:40:30.373Z,16.47
2023-04-07T05:42:57.276Z,16.33
2023-04-07T05:45:24.270Z,16.60
2023-04-07T05:47:51.417Z,16.10
2023-04-07T05:50:18.579Z,16.88
2023-04-07T05:52:46.159Z,16.20
2023-04-07T05:55:13.116Z,17.10
2023-04-07T05:57:40.353Z,17.10
2023-04-07T06:00:08.009Z,16.85
2023-04-07T06:02:35.001Z,16.80
2023-04-07T06:05:02.027Z,16.65
2023-04-07T06:07:28.930Z,16.92
2023-04-07T06:09:56.081Z,17.80
2023-04-07T06:12:22.902Z,16.40
2023-04-07T06:14:56.585Z,17.00
2023-04-07T06:17:24.017Z,16.67
2023-04-07T06:19:51.448Z,17.20
2023-04-07T06:22:18.316Z,16.70
2023-04-07T06:24:45.600Z,16.88
2023-04-07T06:27:12.802Z,16.67
2023-04-07T06:29:39.740Z,16.90
2023-04-07T06:32:06.797Z,16.95
2023-04-07T06:34:33.686Z,18.00
2023-04-07T06:37:01.614Z,18.27
2023-04-07T06:39:29.998Z,17.27
2023-04-07T06:41:57.801Z,17.30
2023-04-07T06:44:24.655Z,16.25
2023-04-07T06:46:53.372Z,16.80
2023-04-07T06:49:20.262Z,16.80
2023-04-07T06:51:47.188Z,16.80
2023-04-07T06:54:14.866Z,18.08
2023-04-07T06:56:43.185Z,17.17
2023-04-07T06:59:10.317Z,17.05
2023-04-07T07:01:38.015Z,17.07
2023-04-07T07:04:08.151Z,16.92
2023-04-07T07:06:35.335Z,18.40
2023-04-07T07:09:03.915Z,17.90
2023-04-07T07:11:30.836Z,19.10
2023-04-07T07:13:57.751Z,17.35
2023-04-07T07:16:24.657Z,17.90
2023-04-07T07:18:51.677Z,17.60
2023-04-07T07:21:19.371Z,17.42
2023-04-07T07:23:46.837Z,17.70
2023-04-07T07:26:14.012Z,18.70
2023-04-07T07:28:41.104Z,17.60
2023-04-07T07:31:13.348Z,16.90
2023-04-07T07:33:41.525Z,17.27
2023-04-07T07:36:08.796Z,16.55
2023-04-07T07:38:37.011Z,18.63
2023-04-07T07:41:06.344Z,17.60
2023-04-07T07:43:33.628Z,17.45
2023-04-07T07:46:00.742Z,16.77
2023-04-07T07:48:27.838Z,17.00
2023-04-07T07:50:56.917Z,17.38
2023-04-07T07:53:24.109Z,17.08
2023-04-07T07:55:51.091Z,17.48
2023-04-07T07:58:18.087Z,17.50
2023-04-07T08:00:45.019Z,16.90
2023-04-07T08:03:12.076Z,16.98
2023-04-07T08:05:38.982Z,16.60
2023-04-07T08:08:06.061Z,17.08
2023-04-07T08:10:33.120Z,17.60
2023-04-07T08:12:59.947Z,17.08
2023-04-07T08:15:27.183Z,17.00
2023-04-07T08:17:55.504Z,17.40
2023-04-07T08:20:23.963Z,17.20
2023-04-07T08:22:51.217Z,18.37
2023-04-07T08:25:18.896Z,17.45
2023-04-07T08:27:45.976Z,17.23
2023-04-07T08:30:13.331Z,17.10
2023-04-07T08:32:46.595Z,17.48
2023-04-07T08:35:13.763Z,17.27
2023-04-07T08:37:42.224Z,17.40
2023-04-07T08:40:09.567Z,17.80
2023-04-07T08:42:41.121Z,17.87
2023-04-07T08:45:09.855Z,17.10
2023-04-07T08:47:37.655Z,17.17
2023-04-07T08:50:09.539Z,17.52
2023-04-07T08:52:56.705Z,18.00
2023-04-07T08:55:24.115Z,17.25
2023-04-07T08:57:52.779Z,17.10
2023-04-07T09:00:19.859Z,18.38
2023-04-07T09:02:49.521Z,18.17
2023-04-07T09:05:16.752Z,17.80
2023-04-07T09:07:43.962Z,17.30
2023-04-07T09:10:11.099Z,17.80
2023-04-07T09:12:38.756Z,17.65
2023-04-07T09:15:07.328Z,17.40
2023-04-07T09:17:34.546Z,17.77
2023-04-07T09:20:02.651Z,16.90
2023-04-07T09:22:45.480Z,17.50
2023-04-07T09:25:26.159Z,17.73
2023-04-07T09:28:01.609Z,17.20
2023-04-07T09:30:33.188Z,17.50
2023-04-07T09:33:01.419Z,17.40
2023-04-07T09:35:28.969Z,17.00
2023-04-07T09:38:07.226Z,17.70
2023-04-07T09:40:35.256Z,16.90
2023-04-07T09:43:04.273Z,16.52
2023-04-07T09:45:35.305Z,16.65
2023-04-07T09:48:08.640Z,16.30
2023-04-07T09:50:41.093Z,16.88
2023-04-07T09:53:08.629Z,16.60
2023-04-07T09:55:36.324Z,16.17
2023-04-07T09:58:04.450Z,16.85
2023-04-07T10:00:31.653Z,16.20
2023-04-07T10:02:59.201Z,16.08
2023-04-07T10:05:27.721Z,15.70
2023-04-07T10:07:55.028Z,15.70
2023-04-07T10:10:21.929Z,15.80
2023-04-07T10:12:51.858Z,16.00
2023-04-07T10:15:18.846Z,16.10
2023-04-07T10:17:50.237Z,15.50
2023-04-07T10:20:21.295Z,15.98
2023-04-07T10:22:55.554Z,15.90
2023-04-07T10:25:25.778Z,15.40
2023-04-07T10:28:08.182Z,15.90
2023-04-07T10:30:36.323Z,16.10
2023-04-07T10:33:03.690Z,15.75
2023-04-07T10:36:06.631Z,15.50
2023-04-07T10:38:33.806Z,15.90
2023-04-07T10:41:00.890Z,15.50
2023-04-07T10:43:39.927Z,16.10
2023-04-07T10:46:06.927Z,15.90
2023-04-07T10:48:33.962Z,15.50
2023-04-07T10:51:07.598Z,15.60
2023-04-07T10:53:38.402Z,15.50
2023-04-07T10:56:05.917Z,15.70
2023-04-07T10:58:33.803Z,15.50
2023-04-07T11:01:00.913Z,15.50
2023-04-07T11:03:29.786Z,15.80
2023-04-07T11:06:06.709Z,15.80
2023-04-07T11:08:49.012Z,15.40
2023-04-07T11:11:20.930Z,15.70
2023-04-07T11:13:49.562Z,15.57
2023-04-07T11:16:19.336Z,15.30
2023-04-07T11:18:48.053Z,15.80
2023-04-07T11:21:19.331Z,15.60
2023-04-07T11:23:47.989Z,15.70
2023-04-07T11:26:16.500Z,15.50
2023-04-07T11:28:54.192Z,15.90
2023-04-07T11:31:28.738Z,15.73
2023-04-07T11:34:00.768Z,15.50
2023-04-07T11:36:29.731Z,16.10
2023-04-07T11:38:57.810Z,16.10
2023-04-07T11:41:27.553Z,15.80
2023-04-07T11:44:08.546Z,15.60
2023-04-07T11:46:36.418Z,15.50
2023-04-07T11:49:12.511Z,15.60
2023-04-07T11:51:39.877Z,16.45
2023-04-07T11:54:06.989Z,15.80
2023-04-07T11:56:45.783Z,15.80
2023-04-07T11:59:24.273Z,15.52
2023-04-07T12:01:55.457Z,15.63
2023-04-07T12:04:24.314Z,15.57
2023-04-07T12:06:51.716Z,15.40
2023-04-07T12:09:29.490Z,16.02
2023-04-07T12:11:57.836Z,15.70
2023-04-07T12:14:26.396Z,15.77
2023-04-07T12:16:56.404Z,15.70
2023-04-07T12:19:25.676Z,15.93
2023-04-07T12:21:52.583Z,15.40
2023-04-07T12:24:19.492Z,15.70
2023-04-07T12:26:46.975Z,15.90
2023-04-07T12:29:14.208Z,15.90
2023-04-07T12:31:42.398Z,15.50
2023-04-07T12:34:09.762Z,15.65
2023-04-07T12:36:36.643Z,15.90
2023-04-07T12:39:03.754Z,15.80
2023-04-07T12:41:31.377Z,15.63
2023-04-07T12:43:58.333Z,16.00
2023-04-07T12:46:25.301Z,15.90
2023-04-07T12:48:52.297Z,16.17
2023-04-07T12:51:19.269Z,16.30
2023-04-07T12:53:47.673Z,15.82
2023-04-07T12:56:14.774Z,16.30
2023-04-07T12:58:41.750Z,16.73
2023-04-07T13:01:08.704Z,16.30
2023-04-07T13:03:36.317Z,16.02
2023-04-07T13:06:04.648Z,15.60
2023-04-07T13:08:31.710Z,15.90
2023-04-07T13:10:58.764Z,15.80
2023-04-07T13:13:25.695Z,15.60
2023-04-07T13:15:53.097Z,15.80
2023-04-07T13:18:20.090Z,15.80
2023-04-07T13:20:55.232Z,15.70
2023-04-07T13:23:42.817Z,15.50
2023-04-07T13:26:10.870Z,16.50
2023-04-07T13:28:38.121Z,15.70
2023-04-07T13:31:05.062Z,15.50
2023-04-07T13:33:32.141Z,15.80
2023-04-07T13:35:59.098Z,15.87
2023-04-07T13:38:26.588Z,15.80
2023-04-07T13:40:53.532Z,15.70
2023-04-07T13:43:20.537Z,15.45
2023-04-07T13:45:48.606Z,16.00
2023-04-07T13:48:15.938Z,16.05
2023-04-07T13:50:43.035Z,15.90
2023-04-07T13:53:10.035Z,15.70
2023-04-07T13:55:37.002Z,15.50
2023-04-07T13:58:03.937Z,16.10
2023-04-07T14:00:30.955Z,15.90
2023-04-07T14:02:58.374Z,16.30
2023-04-07T14:05:25.541Z,15.67
2023-04-07T14:07:52.619Z,15.50
2023-04-07T14:10:19.588Z,15.30
2023-04-07T14:12:47.106Z,15.80
2023-04-07T14:15:14.337Z,16.77
2023-04-07T14:17:42.072Z,20.70
2023-04-07T14:20:09.619Z,17.60
2023-04-07T14:22:36.458Z,17.27
2023-04-07T14:25:04.042Z,16.08
2023-04-07T14:27:31.434Z,15.30
2023-04-07T14:29:59.810Z,15.80
2023-04-07T14:32:29.586Z,15.77
2023-04-07T14:34:59.148Z,15.30
2023-04-07T14:37:26.636Z,15.30
2023-04-07T14:40:02.620Z,15.40
2023-04-07T14:42:31.010Z,15.30
2023-04-07T14:44:59.752Z,15.20
2023-04-07T14:47:27.791Z,15.35
2023-04-07T14:49:55.450Z,15.40
2023-04-07T14:52:22.472Z,15.90
2023-04-07T14:54:49.410Z,15.60
2023-04-07T14:57:17.105Z,15.60
2023-04-07T14:59:44.308Z,16.00
2023-04-07T15:02:11.426Z,16.35
2023-04-07T15:04:38.835Z,18.45
2023-04-07T15:07:05.831Z,16.30
2023-04-07T15:09:32.783Z,15.73
2023-04-07T15:12:00.810Z,15.70
2023-04-07T15:14:28.074Z,16.15
2023-04-07T15:16:55.147Z,16.70
2023-04-07T15:19:22.019Z,15.82
2023-04-07T15:21:49.032Z,15.50
2023-04-07T15:24:16.559Z,15.90
2023-04-07T15:26:43.945Z,16.58
2023-04-07T15:29:10.950Z,15.38
2023-04-07T15:31:38.079Z,15.32
2023-04-07T15:34:05.428Z,15.40
2023-04-07T15:36:32.426Z,15.50
2023-04-07T15:39:07.057Z,15.80
2023-04-07T15:41:34.387Z,15.40
2023-04-07T15:44:04.300Z,15.50
2023-04-07T15:46:34.195Z,15.80
2023-04-07T15:49:01.235Z,15.55
2023-04-07T15:51:29.685Z,16.40
2023-04-07T15:53:56.652Z,15.60
2023-04-07T15:56:24.894Z,15.90
2023-04-07T15:58:52.244Z,15.40
2023-04-07T16:01:19.419Z,15.90
2023-04-07T16:03:47.542Z,15.70
2023-04-07T16:06:14.662Z,15.50
2023-04-07T16:08:41.589Z,15.60
2023-04-07T16:11:08.488Z,15.70
2023-04-07T16:13:35.459Z,16.70
2023-04-07T16:16:02.394Z,16.10
2023-04-07T16:18:30.328Z,15.70
2023-04-07T16:20:57.226Z,16.40
2023-04-07T16:23:24.438Z,15.98
2023-04-07T16:25:51.566Z,16.20
2023-04-07T16:28:18.517Z,15.98
2023-04-07T16:30:45.381Z,16.13
2023-04-07T16:33:12.904Z,15.85
2023-04-07T16:35:40.024Z,17.95
2023-04-07T16:38:07.043Z,16.00
2023-04-07T16:40:34.318Z,16.25
2023-04-07T16:43:01.381Z,16.50
2023-04-07T16:45:28.817Z,16.42
2023-04-07T16:47:55.785Z,16.20
2023-04-07T16:50:22.846Z,16.10
2023-04-07T16:52:49.710Z,16.27
2023-04-07T16:55:16.651Z,15.70
2023-04-07T16:57:43.536Z,16.13
2023-04-07T17:00:11.094Z,15.82
2023-04-07T17:02:38.113Z,15.77
2023-04-07T17:05:05.498Z,16.30
2023-04-07T17:07:32.509Z,16.10
2023-04-07T17:10:01.554Z,16.40
2023-04-07T17:12:28.537Z,17.42
2023-04-07T17:14:55.363Z,16.13
2023-04-07T17:17:22.427Z,16.60
2023-04-07T17:19:49.302Z,16.23
2023-04-07T17:22:16.464Z,16.20
2023-04-07T17:24:43.543Z,16.50
2023-04-07T17:27:10.753Z,15.68
2023-04-07T17:29:37.673Z,15.68
2023-04-07T17:32:04.780Z,16.30
2023-04-07T17:34:31.759Z,15.80
2023-04-07T17:36:59.873Z,15.70
2023-04-07T17:39:26.779Z,16.20
2023-04-07T17:41:53.711Z,15.90
2023-04-07T17:44:20.837Z,16.20
2023-04-07T17:46:48.498Z,17.42
2023-04-07T17:49:15.701Z,16.20
2023-04-07T17:51:42.626Z,15.90
2023-04-07T17:54:09.515Z,16.67
2023-04-07T17:56:37.468Z,16.20
2023-04-07T17:59:04.295Z,16.10
2023-04-07T18:01:31.332Z,15.98
2023-04-07T18:03:58.402Z,16.40
2023-04-07T18:06:25.493Z,16.70
2023-04-07T18:08:52.321Z,16.00
2023-04-07T18:11:19.355Z,16.10
2023-04-07T18:13:46.288Z,16.42
2023-04-07T18:16:18.717Z,16.90
2023-04-07T18:18:48.840Z,16.23
2023-04-07T18:21:15.840Z,16.30
2023-04-07T18:23:42.709Z,15.90
2023-04-07T18:26:09.817Z,16.30
2023-04-07T18:28:36.736Z,16.20
2023-04-07T18:31:08.245Z,16.88
2023-04-07T18:33:36.300Z,16.38
2023-04-07T18:36:05.025Z,16.65
2023-04-07T18:38:32.004Z,16.10
2023-04-07T18:41:00.141Z,16.40
2023-04-07T18:43:27.965Z,16.00
2023-04-07T18:45:54.919Z,17.00
2023-04-07T18:48:22.083Z,16.48
2023-04-07T18:50:52.918Z,16.70
2023-04-07T18:53:24.325Z,16.52
2023-04-07T18:55:51.859Z,17.15
2023-04-07T18:58:19.936Z,16.50
2023-04-07T19:00:49.910Z,16.40
2023-04-07T19:03:17.234Z,16.20
2023-04-07T19:05:47.646Z,16.10
2023-04-07T19:08:15.990Z,18.10
2023-04-07T19:10:43.713Z,16.70
2023-04-07T19:13:10.773Z,16.85
2023-04-07T19:15:39.444Z,16.63
2023-04-07T19:18:08.440Z,16.70
2023-04-07T19:20:35.533Z,16.50
2023-04-07T19:23:02.707Z,17.90
2023-04-07T19:25:30.842Z,18.00
2023-04-07T19:27:58.583Z,19.37
2023-04-07T19:30:25.623Z,19.30
2023-04-07T19:32:53.102Z,17.80
2023-04-07T19:35:20.423Z,18.65
2023-04-07T19:37:48.278Z,17.90
2023-04-07T19:40:15.691Z,18.13
2023-04-07T19:42:42.845Z,18.95
2023-04-07T19:45:10.403Z,17.00
2023-04-07T19:47:38.686Z,16.77
2023-04-07T19:50:06.391Z,17.88
2023-04-07T19:52:33.417Z,17.20
2023-04-07T19:55:01.502Z,16.80
2023-04-07T19:57:31.029Z,16.67
2023-04-07T19:59:58.288Z,17.10
2023-04-07T20:02:25.486Z,17.70
2023-04-07T20:04:53.609Z,17.83
2023-04-07T20:07:20.808Z,17.73
2023-04-07T20:09:47.859Z,18.20
2023-04-07T20:12:15.198Z,17.30
2023-04-07T20:14:42.152Z,16.75
2023-04-07T20:17:09.380Z,16.70
2023-04-07T20:19:36.566Z,17.05
2023-04-07T20:22:04.578Z,16.80
2023-04-07T20:24:31.688Z,17.00
2023-04-07T20:26:58.677Z,18.90
2023-04-07T20:29:25.735Z,16.70
2023-04-07T20:31:53.123Z,16.80
2023-04-07T20:34:20.228Z,18.02
2023-04-07T20:36:48.936Z,16.55
2023-04-07T20:39:16.581Z,16.10
2023-04-07T20:41:45.142Z,16.60
2023-04-07T20:44:12.347Z,16.95
2023-04-07T20:46:39.360Z,16.80
2023-04-07T20:49:07.907Z,16.73
2023-04-07T20:51:37.814Z,17.05
2023-04-07T20:54:05.227Z,16.63
2023-04-07T20:56:32.245Z,16.40
2023-04-07T20:58:59.204Z,16.58
2023-04-07T21:01:26.514Z,16.08
2023-04-07T21:03:54.185Z,16.80
2023-04-07T21:06:21.442Z,16.80
2023-04-07T21:08:48.666Z,17.40
2023-04-07T21:11:15.902Z,16.63
2023-04-07T21:13:43.152Z,16.38
2023-04-07T21:16:10.974Z,17.02
2023-04-07T21:18:38.078Z,17.10
2023-04-07T21:21:05.387Z,17.53
2023-04-07T21:23:32.311Z,17.70
2023-04-07T21:26:03.169Z,18.20
2023-04-07T21:28:30.333Z,17.38
2023-04-07T21:30:57.340Z,17.45
2023-04-07T21:33:24.572Z,19.40
2023-04-07T21:35:52.254Z,18.90
2023-04-07T21:38:19.179Z,17.83
2023-04-07T21:40:46.114Z,18.50
2023-04-07T21:43:13.250Z,17.77
2023-04-07T21:45:40.511Z,17.00
2023-04-07T21:48:07.892Z,18.13
2023-04-07T21:50:36.225Z,17.80
2023-04-07T21:53:03.495Z,16.90
2023-04-07T21:55:30.405Z,17.60
2023-04-07T21:57:58.162Z,17.48
2023-04-07T22:00:25.117Z,17.80
2023-04-07T22:02:52.491Z,18.10
2023-04-07T22:05:19.710Z,18.00
2023-04-07T22:07:46.879Z,18.20
2023-04-07T22:10:13.831Z,17.70
2023-04-07T22:12:41.093Z,17.20
2023-04-07T22:15:09.123Z,17.70
2023-04-07T22:17:36.063Z,17.33
2023-04-07T22:20:04.026Z,17.30
2023-04-07T22:22:31.020Z,17.80
2023-04-07T22:24:57.912Z,16.67
2023-04-07T22:27:24.990Z,16.95
2023-04-07T22:29:51.858Z,17.30
2023-04-07T22:32:18.788Z,18.38
2023-04-07T22:34:46.628Z,16.88
2023-04-07T22:37:13.679Z,16.90
2023-04-07T22:39:40.673Z,15.70
2023-04-07T22:42:07.536Z,16.50
2023-04-07T22:44:34.478Z,16.63
2023-04-07T22:47:01.407Z,16.40
2023-04-07T22:49:29.872Z,16.40
2023-04-07T22:51:57.196Z,16.10
2023-04-07T22:54:24.268Z,16.60
2023-04-07T22:56:51.228Z,16.10
2023-04-07T22:59:18.136Z,17.48
2023-04-07T23:01:45.079Z,15.85
2023-04-07T23:04:12.114Z,16.08
2023-04-07T23:06:40.637Z,16.10
2023-04-07T23:09:07.697Z,15.73
2023-04-07T23:11:34.691Z,15.80
2023-04-07T23:14:04.960Z,15.50
2023-04-07T23:16:33.292Z,15.85
2023-04-07T23:19:01.152Z,15.93
2023-04-07T23:21:29.636Z,15.60
2023-04-07T23:23:58.259Z,15.70
2023-04-07T23:26:26.704Z,15.70
2023-04-07T23:28:53.663Z,15.88
2023-04-07T23:31:20.769Z,16.00
2023-04-07T23:33:47.952Z,15.93
2023-04-07T23:36:15.250Z,15.70
2023-04-07T23:38:42.305Z,16.17
2023-04-07T23:41:09.312Z,15.90
2023-04-07T23:43:36.393Z,16.17
2023-04-07T23:46:03.360Z,16.17
2023-04-07T23:48:31.374Z,15.55
2023-04-07T23:50:59.993Z,15.60
2023-04-07T23:53:27.114Z,15.50
2023-04-07T23:55:54.163Z,15.60
2023-04-07T23:58:21.087Z,15.50
